Time;durP1;ratioP1;P1;durP2;ratioP2;P2;SDS_P1;SDS_P2;PMS_P1;PMS_P2;Temp;Humidity;BMP_temperature;BMP_pressure;BME280_temperature;BME280_humidity;BME280_pressure;Samples;Min_cycle;Max_cycle;Signal;HPM_P1;HPM_P2
2022/01/11 00:00:29;;;;;;;20.87;11.70;;;;;;;;;;4706265;30;20602;-88
2022/01/11 00:03:50;;;;;;;16.60;9.40;;;;;;;;;;4726757;30;20557;-89
2022/01/11 00:06:54;;;;;;;15.37;10.30;;;;;;;;;;4726079;30;20634;-89
2022/01/11 00:09:58;;;;;;;15.80;9.60;;;;;;;;;;4726086;30;20664;-88
2022/01/11 00:13:02;;;;;;;18.90;10.00;;;;;;;;;;4715831;30;20920;-88
2022/01/11 00:16:08;;;;;;;19.13;10.67;;;;;;;;;;4715936;30;20628;-88
2022/01/11 00:19:13;;;;;;;15.40;10.43;;;;;;;;;;4716291;30;20632;-88
2022/01/11 00:22:20;;;;;;;17.30;9.57;;;;;;;;;;4726977;30;21205;-88
2022/01/11 00:25:25;;;;;;;16.27;10.33;;;;;;;;;;4715719;30;20606;-88
2022/01/11 00:28:30;;;;;;;15.67;10.73;;;;;;;;;;4698609;30;20695;-87
2022/01/11 00:31:51;;;;;;;17.40;10.17;;;;;;;;;;4698088;30;20591;-87
2022/01/11 00:34:56;;;;;;;20.37;11.43;;;;;;;;;;4708442;30;21206;-88
2022/01/11 00:38:00;;;;;;;19.37;11.13;;;;;;;;;;4698694;30;20625;-88
2022/01/11 00:41:09;;;;;;;20.30;12.10;;;;;;;;;;4708735;30;20639;-88
2022/01/11 00:44:13;;;;;;;22.63;12.17;;;;;;;;;;4689036;30;20567;-88
2022/01/11 00:47:18;;;;;;;21.47;11.63;;;;;;;;;;4688674;30;20633;-88
2022/01/11 00:50:25;;;;;;;27.10;12.47;;;;;;;;;;4708642;30;20562;-88
2022/01/11 00:53:30;;;;;;;20.30;12.33;;;;;;;;;;4688751;30;20583;-88
2022/01/11 00:56:34;;;;;;;21.03;11.93;;;;;;;;;;4708284;30;20571;-89
2022/01/11 00:59:38;;;;;;;20.07;11.77;;;;;;;;;;4697806;30;20658;-88
2022/01/11 01:02:43;;;;;;;23.67;11.37;;;;;;;;;;4707826;30;20563;-87
2022/01/11 01:05:47;;;;;;;20.13;12.17;;;;;;;;;;4698107;30;20547;-88
2022/01/11 01:08:52;;;;;;;20.87;11.97;;;;;;;;;;4698283;30;21257;-86
2022/01/11 01:11:56;;;;;;;20.13;11.90;;;;;;;;;;4708054;30;21194;-86
2022/01/11 01:15:01;;;;;;;24.23;12.43;;;;;;;;;;4697772;30;20608;-86
2022/01/11 01:18:06;;;;;;;22.73;12.13;;;;;;;;;;4704907;30;20605;-87
2022/01/11 01:21:10;;;;;;;20.77;11.57;;;;;;;;;;4715002;30;20575;-86
2022/01/11 01:24:14;;;;;;;22.00;11.83;;;;;;;;;;4705159;30;20578;-88
2022/01/11 01:27:18;;;;;;;20.40;10.97;;;;;;;;;;4704885;30;21033;-88
2022/01/11 01:30:23;;;;;;;19.90;10.97;;;;;;;;;;4705288;30;20551;-88
2022/01/11 01:33:32;;;;;;;17.27;10.70;;;;;;;;;;4704674;30;20575;-88
2022/01/11 01:36:36;;;;;;;19.80;11.20;;;;;;;;;;4724793;30;20615;-88
2022/01/11 01:39:40;;;;;;;21.50;11.87;;;;;;;;;;4715090;30;20634;-89
2022/01/11 01:42:46;;;;;;;16.83;10.47;;;;;;;;;;4714888;30;20550;-89
2022/01/11 01:45:51;;;;;;;21.30;11.13;;;;;;;;;;4724680;30;20558;-89
2022/01/11 01:48:59;;;;;;;17.47;11.10;;;;;;;;;;4711886;30;20682;-88
2022/01/11 01:52:03;;;;;;;18.20;10.57;;;;;;;;;;4707452;30;20559;-88
2022/01/11 01:55:08;;;;;;;19.10;11.53;;;;;;;;;;4717474;30;20618;-88
2022/01/11 01:58:13;;;;;;;17.80;11.40;;;;;;;;;;4706797;30;20619;-87
2022/01/11 02:01:19;;;;;;;16.60;10.93;;;;;;;;;;4697348;30;20563;-89
2022/01/11 02:04:23;;;;;;;18.83;10.83;;;;;;;;;;4707464;30;21092;-89
2022/01/11 02:07:27;;;;;;;21.70;11.90;;;;;;;;;;4707214;30;20622;-89
2022/01/11 02:10:31;;;;;;;22.73;12.07;;;;;;;;;;4697189;30;20583;-88
2022/01/11 02:13:36;;;;;;;22.50;12.23;;;;;;;;;;4700018;30;20556;-88
2022/01/11 02:16:42;;;;;;;19.90;11.43;;;;;;;;;;4710590;30;21118;-88
2022/01/11 02:19:48;;;;;;;19.50;12.30;;;;;;;;;;4700841;30;20646;-88
2022/01/11 02:22:52;;;;;;;25.80;12.00;;;;;;;;;;4690708;30;20901;-88
2022/01/11 02:25:58;;;;;;;19.17;11.00;;;;;;;;;;4690323;30;20618;-88
2022/01/11 02:29:03;;;;;;;18.97;11.43;;;;;;;;;;4710191;30;20662;-86
2022/01/11 02:32:07;;;;;;;21.60;11.87;;;;;;;;;;4690582;30;21133;-89
2022/01/11 02:35:12;;;;;;;19.00;12.00;;;;;;;;;;4690529;30;20575;-89
2022/01/11 02:38:17;;;;;;;22.20;11.83;;;;;;;;;;4700300;30;20643;-89
2022/01/11 02:41:24;;;;;;;23.30;11.80;;;;;;;;;;4700681;30;20627;-88
2022/01/11 02:44:28;;;;;;;25.83;12.27;;;;;;;;;;4690112;30;20613;-88
2022/01/11 02:47:33;;;;;;;20.03;12.00;;;;;;;;;;4699961;30;20974;-87
2022/01/11 02:50:37;;;;;;;21.83;11.77;;;;;;;;;;4699968;30;20567;-89
2022/01/11 02:53:50;;;;;;;17.83;11.93;;;;;;;;;;4710082;30;20555;-88
2022/01/11 02:56:54;;;;;;;20.73;11.53;;;;;;;;;;4709967;30;20575;-88
2022/01/11 02:59:58;;;;;;;22.67;13.07;;;;;;;;;;4709555;30;20653;-87
2022/01/11 03:03:10;;;;;;;21.93;12.30;;;;;;;;;;4710074;30;20924;-88
2022/01/11 03:06:14;;;;;;;20.10;12.00;;;;;;;;;;4709636;30;21138;-88
2022/01/11 03:09:19;;;;;;;22.10;12.80;;;;;;;;;;4718890;30;20686;-88
2022/01/11 03:12:23;;;;;;;22.70;12.43;;;;;;;;;;4707019;30;20610;-88
2022/01/11 03:15:28;;;;;;;19.10;10.93;;;;;;;;;;4717049;30;20574;-88
2022/01/11 03:18:37;;;;;;;20.30;11.53;;;;;;;;;;4717618;30;20638;-88
2022/01/11 03:21:43;;;;;;;19.13;12.40;;;;;;;;;;4707393;30;20565;-88
2022/01/11 03:24:50;;;;;;;25.33;11.53;;;;;;;;;;4709167;30;20645;-88
2022/01/11 03:27:55;;;;;;;17.70;11.47;;;;;;;;;;4690190;30;20615;-88
2022/01/11 03:31:00;;;;;;;16.00;11.50;;;;;;;;;;4699611;30;20571;-88
2022/01/11 03:34:08;;;;;;;21.13;12.03;;;;;;;;;;4703894;30;20602;-88
2022/01/11 03:37:16;;;;;;;21.50;11.70;;;;;;;;;;4716750;30;20582;-88
2022/01/11 03:40:23;;;;;;;17.47;10.83;;;;;;;;;;4707399;30;20624;-88
2022/01/11 03:43:27;;;;;;;18.87;10.70;;;;;;;;;;4716468;30;20575;-88
2022/01/11 03:46:32;;;;;;;18.80;11.43;;;;;;;;;;4716989;30;20617;-88
2022/01/11 03:49:36;;;;;;;21.27;11.33;;;;;;;;;;4716299;30;20676;-88
2022/01/11 03:52:42;;;;;;;22.13;12.50;;;;;;;;;;4716777;30;20550;-88
2022/01/11 03:59:05;;;;;;;19.20;12.13;;;;;;;;;;4716195;30;20796;-87
2022/01/11 04:02:10;;;;;;;19.10;11.23;;;;;;;;;;4716527;30;20562;-88
2022/01/11 04:05:15;;;;;;;20.57;10.53;;;;;;;;;;4716528;30;20551;-88
2022/01/11 04:08:20;;;;;;;16.13;11.07;;;;;;;;;;4716030;30;20677;-88
2022/01/11 04:11:24;;;;;;;18.03;11.70;;;;;;;;;;4706332;30;20571;-88
2022/01/11 04:14:30;;;;;;;19.13;11.73;;;;;;;;;;4716232;30;20550;-89
2022/01/11 04:17:34;;;;;;;18.63;11.40;;;;;;;;;;4716186;30;20570;-88
2022/01/11 04:20:38;;;;;;;20.03;11.60;;;;;;;;;;4716917;30;20561;-88
2022/01/11 04:23:43;;;;;;;19.93;11.63;;;;;;;;;;4706436;30;20578;-88
2022/01/11 04:26:47;;;;;;;21.47;12.10;;;;;;;;;;4706294;30;20909;-88
2022/01/11 04:29:51;;;;;;;22.17;11.80;;;;;;;;;;4715879;30;21251;-88
2022/01/11 04:32:56;;;;;;;21.50;11.43;;;;;;;;;;4715856;30;21204;-88
2022/01/11 04:36:01;;;;;;;22.17;12.00;;;;;;;;;;4714741;30;20570;-88
2022/01/11 04:39:08;;;;;;;19.27;11.63;;;;;;;;;;4698756;30;21222;-88
2022/01/11 04:42:14;;;;;;;22.33;11.40;;;;;;;;;;4698925;30;20560;-88
2022/01/11 04:45:19;;;;;;;21.20;11.90;;;;;;;;;;4698430;30;20568;-88
2022/01/11 04:48:25;;;;;;;20.90;11.57;;;;;;;;;;4698599;30;20679;-87
2022/01/11 04:51:29;;;;;;;21.77;11.17;;;;;;;;;;4698567;30;20552;-88
2022/01/11 04:54:34;;;;;;;21.67;11.73;;;;;;;;;;4698149;30;20555;-86
2022/01/11 04:57:38;;;;;;;21.40;11.17;;;;;;;;;;4698014;30;20567;-87
2022/01/11 05:00:43;;;;;;;19.10;10.50;;;;;;;;;;4698646;30;20552;-87
2022/01/11 05:03:49;;;;;;;18.83;10.90;;;;;;;;;;4688193;30;20563;-88
2022/01/11 05:06:55;;;;;;;20.63;11.20;;;;;;;;;;4688139;30;20571;-88
2022/01/11 05:10:01;;;;;;;18.50;10.97;;;;;;;;;;4697716;30;20679;-88
2022/01/11 05:13:06;;;;;;;20.63;10.80;;;;;;;;;;4697812;30;21123;-88
2022/01/11 05:16:10;;;;;;;20.60;10.60;;;;;;;;;;4697760;30;20564;-88
2022/01/11 05:19:14;;;;;;;21.03;10.10;;;;;;;;;;4697478;30;20642;-88
2022/01/11 05:22:29;;;;;;;18.40;10.43;;;;;;;;;;4699863;30;21177;-88
2022/01/11 05:25:33;;;;;;;20.40;10.17;;;;;;;;;;4687567;30;20564;-88
2022/01/11 05:28:40;;;;;;;16.40;9.40;;;;;;;;;;4687379;30;20670;-88
2022/01/11 05:31:47;;;;;;;15.93;9.23;;;;;;;;;;4716920;30;20619;-88
2022/01/11 05:39:37;;;;;;;18.70;9.70;;;;;;;;;;4707603;30;20635;-87
2022/01/11 05:43:57;;;;;;;17.57;9.73;;;;;;;;;;4712329;30;21174;-88
2022/01/11 05:48:35;;;;;;;;;;;;;;;;;;;;;
2022/01/11 05:53:17;;;;;;;17.13;9.53;;;;;;;;;;4705804;30;20576;-86
2022/01/11 05:56:25;;;;;;;15.73;8.73;;;;;;;;;;4685940;30;21000;-87
2022/01/11 06:04:14;;;;;;;15.10;9.53;;;;;;;;;;4697243;30;20199;-84
2022/01/11 06:07:19;;;;;;;16.07;9.73;;;;;;;;;;4698033;30;20571;-90
2022/01/11 06:10:23;;;;;;;17.93;9.07;;;;;;;;;;4697244;30;20634;-88
2022/01/11 06:13:27;;;;;;;17.13;9.00;;;;;;;;;;4697163;30;20567;-88
2022/01/11 06:16:34;;;;;;;18.20;9.30;;;;;;;;;;4708380;30;20598;-84
2022/01/11 06:19:39;;;;;;;14.53;8.83;;;;;;;;;;4724238;30;20637;-88
2022/01/11 06:22:47;;;;;;;15.30;9.20;;;;;;;;;;4705068;30;20606;-88
2022/01/11 06:25:52;;;;;;;16.27;9.30;;;;;;;;;;4704843;30;20908;-88
2022/01/11 06:28:57;;;;;;;18.13;8.60;;;;;;;;;;4704259;30;20673;-88
2022/01/11 06:32:01;;;;;;;13.90;8.97;;;;;;;;;;4714038;30;20618;-89
2022/01/11 06:35:06;;;;;;;15.37;8.40;;;;;;;;;;4714415;30;20583;-89
2022/01/11 06:38:10;;;;;;;14.60;8.20;;;;;;;;;;4714308;30;20926;-88
2022/01/11 06:41:15;;;;;;;16.20;8.50;;;;;;;;;;4704359;30;20567;-88
2022/01/11 06:44:20;;;;;;;13.33;8.90;;;;;;;;;;4704257;30;20583;-88
2022/01/11 06:47:25;;;;;;;13.80;7.83;;;;;;;;;;4703978;30;20574;-88
2022/01/11 06:50:30;;;;;;;13.93;7.43;;;;;;;;;;4712718;30;20598;-88
2022/01/11 06:53:34;;;;;;;14.53;8.00;;;;;;;;;;4706876;30;20586;-88
2022/01/11 06:56:39;;;;;;;16.00;7.53;;;;;;;;;;4706956;30;20567;-85
2022/01/11 06:59:46;;;;;;;15.77;8.10;;;;;;;;;;4727444;24;20697;-89
2022/01/11 07:02:55;;;;;;;13.83;8.53;;;;;;;;;;4709781;30;20560;-89
2022/01/11 07:06:11;;;;;;;14.07;8.57;;;;;;;;;;4701075;30;20619;-88
2022/01/11 07:09:16;;;;;;;11.83;7.30;;;;;;;;;;4699689;30;20682;-89
2022/01/11 07:12:21;;;;;;;15.97;8.10;;;;;;;;;;4699989;30;20572;-88
2022/01/11 07:15:25;;;;;;;16.67;7.83;;;;;;;;;;4689983;30;20575;-88
2022/01/11 07:18:30;;;;;;;14.40;7.30;;;;;;;;;;4689644;30;20563;-89
2022/01/11 07:21:38;;;;;;;13.87;8.13;;;;;;;;;;4689976;30;20630;-88
2022/01/11 07:24:55;;;;;;;13.17;7.87;;;;;;;;;;4699709;30;20551;-90
2022/01/11 07:28:00;;;;;;;16.40;8.77;;;;;;;;;;4699666;30;20909;-88
2022/01/11 07:31:06;;;;;;;13.83;7.17;;;;;;;;;;4689569;30;20793;-88
2022/01/11 07:34:18;;;;;;;16.20;8.50;;;;;;;;;;4699600;30;20567;-89
2022/01/11 07:37:22;;;;;;;12.63;8.60;;;;;;;;;;4699459;30;20559;-89
2022/01/11 07:40:28;;;;;;;15.83;8.63;;;;;;;;;;4699062;30;20642;-90
2022/01/11 07:43:38;;;;;;;15.77;8.47;;;;;;;;;;4699496;30;20564;-89
2022/01/11 07:46:53;;;;;;;11.87;7.70;;;;;;;;;;4699286;30;20568;-89
2022/01/11 07:50:08;;;;;;;15.00;8.17;;;;;;;;;;4699190;30;21296;-89
2022/01/11 07:53:13;;;;;;;16.17;8.83;;;;;;;;;;4699193;30;20897;-89
2022/01/11 07:56:23;;;;;;;13.43;7.73;;;;;;;;;;4690157;30;20567;-89
2022/01/11 07:59:27;;;;;;;16.93;7.93;;;;;;;;;;4698564;30;20646;-89
2022/01/11 08:02:32;;;;;;;12.27;7.57;;;;;;;;;;4698970;30;20623;-89
2022/01/11 08:05:36;;;;;;;13.37;7.63;;;;;;;;;;4689017;30;20618;-89
2022/01/11 08:08:42;;;;;;;11.57;7.57;;;;;;;;;;4698710;30;20960;-89
2022/01/11 08:11:49;;;;;;;14.03;7.63;;;;;;;;;;4698370;30;20555;-89
2022/01/11 08:14:53;;;;;;;15.23;8.23;;;;;;;;;;4698588;30;20623;-90
2022/01/11 08:17:57;;;;;;;18.50;9.20;;;;;;;;;;4698605;30;20551;-89
2022/01/11 08:21:02;;;;;;;14.13;7.67;;;;;;;;;;4698786;30;20547;-89
2022/01/11 08:24:07;;;;;;;15.83;8.40;;;;;;;;;;4698650;30;21091;-89
2022/01/11 08:27:13;;;;;;;12.30;7.03;;;;;;;;;;4698585;30;20593;-89
2022/01/11 08:30:19;;;;;;;11.47;8.07;;;;;;;;;;4688519;30;20671;-89
2022/01/11 08:33:28;;;;;;;12.93;7.50;;;;;;;;;;4698337;30;20585;-89
2022/01/11 08:36:32;;;;;;;15.77;8.77;;;;;;;;;;4698341;30;20555;-89
2022/01/11 08:39:37;;;;;;;13.10;7.43;;;;;;;;;;4688437;30;20642;-89
2022/01/11 08:42:41;;;;;;;12.10;7.73;;;;;;;;;;4688306;30;20614;-89
2022/01/11 08:45:45;;;;;;;14.30;8.37;;;;;;;;;;4698330;30;20555;-89
2022/01/11 08:48:53;;;;;;;13.03;7.67;;;;;;;;;;4698298;30;20642;-89
2022/01/11 08:51:57;;;;;;;14.47;8.53;;;;;;;;;;4688338;30;20552;-89
2022/01/11 08:55:03;;;;;;;16.10;8.50;;;;;;;;;;4689061;30;20560;-89
2022/01/11 08:58:08;;;;;;;14.10;9.10;;;;;;;;;;4688495;30;21111;-88
2022/01/11 09:01:12;;;;;;;14.90;8.57;;;;;;;;;;4688159;30;20555;-89
2022/01/11 09:04:17;;;;;;;15.90;8.83;;;;;;;;;;4688431;30;20555;-88
2022/01/11 09:07:41;;;;;;;13.37;8.57;;;;;;;;;;4698072;30;20559;-89
2022/01/11 09:10:45;;;;;;;14.77;9.20;;;;;;;;;;4697504;30;20666;-89
2022/01/11 09:13:50;;;;;;;17.77;9.90;;;;;;;;;;4698170;30;20568;-89
2022/01/11 09:16:56;;;;;;;25.77;13.80;;;;;;;;;;4687915;30;20619;-88
2022/01/11 09:20:01;;;;;;;24.60;13.63;;;;;;;;;;4697851;30;21097;-89
2022/01/11 09:23:06;;;;;;;24.70;14.30;;;;;;;;;;4687989;30;20567;-89
2022/01/11 09:26:13;;;;;;;23.13;12.83;;;;;;;;;;4688222;30;20932;-89
2022/01/11 09:29:26;;;;;;;15.77;10.83;;;;;;;;;;4697506;30;20635;-89
2022/01/11 09:32:34;;;;;;;18.13;9.87;;;;;;;;;;4688178;30;20570;-89
2022/01/11 09:35:38;;;;;;;17.93;11.10;;;;;;;;;;4697876;30;20581;-91
2022/01/11 09:39:09;;;;;;;20.13;11.60;;;;;;;;;;4718264;30;20976;-91
2022/01/11 09:42:14;;;;;;;20.17;13.00;;;;;;;;;;4688317;30;20555;-88
2022/01/11 09:45:19;;;;;;;21.90;10.97;;;;;;;;;;4697282;30;20623;-90
2022/01/11 09:48:28;;;;;;;16.77;10.20;;;;;;;;;;4687651;30;20567;-89
2022/01/11 09:51:36;;;;;;;16.23;10.03;;;;;;;;;;4698461;30;21171;-89
2022/01/11 09:54:43;;;;;;;16.63;9.53;;;;;;;;;;4697768;30;20555;-88
2022/01/11 09:57:49;;;;;;;15.87;9.27;;;;;;;;;;4697476;30;20555;-87
2022/01/11 10:01:33;;;;;;;15.23;8.43;;;;;;;;;;4626478;31;20565;-90
2022/01/11 10:05:08;;;;;;;14.73;9.43;;;;;;;;;;4624080;30;20597;-87
2022/01/11 10:08:33;;;;;;;15.93;10.17;;;;;;;;;;4700311;30;21092;-90
2022/01/11 10:11:42;;;;;;;14.97;9.57;;;;;;;;;;4697269;30;20611;-87
2022/01/11 10:14:55;;;;;;;15.17;9.33;;;;;;;;;;4697737;30;20559;-90
2022/01/11 10:18:00;;;;;;;15.73;9.70;;;;;;;;;;4687575;30;20611;-89
2022/01/11 10:21:35;;;;;;;18.77;9.53;;;;;;;;;;4707326;30;20551;-89
2022/01/11 10:24:43;;;;;;;16.80;9.63;;;;;;;;;;4688041;30;20551;-88
2022/01/11 10:28:05;;;;;;;12.10;8.40;;;;;;;;;;4699155;30;20568;-89
2022/01/11 10:31:32;;;;;;;17.70;9.57;;;;;;;;;;4697890;30;20611;-88
2022/01/11 10:34:36;;;;;;;15.53;8.87;;;;;;;;;;4690463;30;20555;-88
2022/01/11 10:37:45;;;;;;;14.63;8.90;;;;;;;;;;4691175;30;21170;-88
2022/01/11 10:40:52;;;;;;;15.10;9.40;;;;;;;;;;4700780;30;20555;-92
2022/01/11 10:43:57;;;;;;;14.93;9.80;;;;;;;;;;4690691;30;20555;-90
2022/01/11 10:47:03;;;;;;;17.60;10.10;;;;;;;;;;4694711;30;20972;-91
2022/01/11 10:50:12;;;;;;;14.67;9.13;;;;;;;;;;4673092;30;20683;-89
2022/01/11 10:53:23;;;;;;;15.60;9.40;;;;;;;;;;4683479;30;20193;-89
2022/01/11 10:56:40;;;;;;;13.93;9.43;;;;;;;;;;4674222;30;20205;-88
2022/01/11 11:00:04;;;;;;;15.17;9.47;;;;;;;;;;4683654;30;20245;-88
2022/01/11 11:03:23;;;;;;;15.20;8.93;;;;;;;;;;4693882;30;20197;-89
2022/01/11 11:06:35;;;;;;;23.00;10.90;;;;;;;;;;4674827;30;20193;-89
2022/01/11 11:09:50;;;;;;;18.40;10.57;;;;;;;;;;4673794;30;20228;-88
2022/01/11 11:12:54;;;;;;;43.53;18.30;;;;;;;;;;4673842;30;20213;-88
2022/01/11 11:16:11;;;;;;;19.57;10.97;;;;;;;;;;4673605;30;20201;-88
2022/01/11 11:19:16;;;;;;;15.33;9.40;;;;;;;;;;4683793;30;20237;-88
2022/01/11 11:22:27;;;;;;;16.80;11.07;;;;;;;;;;4674577;30;20197;-88
2022/01/11 11:25:31;;;;;;;25.33;14.97;;;;;;;;;;4673570;30;20193;-92
2022/01/11 11:28:36;;;;;;;17.17;11.53;;;;;;;;;;4682474;30;20197;-91
2022/01/11 11:31:41;;;;;;;15.23;8.73;;;;;;;;;;4682325;30;20225;-91
2022/01/11 11:34:49;;;;;;;9.30;6.70;;;;;;;;;;4692052;30;20197;-89
2022/01/11 11:38:02;;;;;;;11.23;7.63;;;;;;;;;;4672725;30;20669;-89
2022/01/11 11:41:07;;;;;;;7.17;4.17;;;;;;;;;;4672363;30;20189;-90
2022/01/11 11:44:20;;;;;;;7.70;5.13;;;;;;;;;;4709195;30;20212;-89
2022/01/11 11:47:34;;;;;;;5.90;4.80;;;;;;;;;;4699548;30;20196;-91
2022/01/11 11:51:00;;;;;;;10.23;6.70;;;;;;;;;;4699127;30;20240;-89
2022/01/11 11:54:16;;;;;;;8.87;6.53;;;;;;;;;;4699640;30;20201;-89
2022/01/11 11:57:23;;;;;;;5.30;4.23;;;;;;;;;;4699439;30;20197;-88
2022/01/11 12:00:33;;;;;;;8.97;3.80;;;;;;;;;;4699533;30;20231;-91
2022/01/11 12:03:43;;;;;;;4.87;3.60;;;;;;;;;;4709230;30;20366;-92
2022/01/11 12:06:48;;;;;;;6.17;4.33;;;;;;;;;;4717340;30;20212;-93
2022/01/11 12:09:52;;;;;;;6.33;4.50;;;;;;;;;;4706377;30;20235;-91
2022/01/11 12:12:56;;;;;;;6.37;4.33;;;;;;;;;;4716601;30;20203;-88
2022/01/11 12:16:00;;;;;;;7.23;3.93;;;;;;;;;;4706786;30;20196;-88
2022/01/11 12:19:26;;;;;;;6.03;4.07;;;;;;;;;;4716263;30;20230;-91
2022/01/11 12:22:33;;;;;;;7.13;4.27;;;;;;;;;;4721268;30;20660;-90
2022/01/11 12:25:42;;;;;;;4.57;4.00;;;;;;;;;;4716322;30;20554;-89
2022/01/11 12:29:09;;;;;;;7.43;5.37;;;;;;;;;;4716346;30;20231;-88
2022/01/11 12:32:14;;;;;;;6.30;4.70;;;;;;;;;;4712011;30;20227;-88
2022/01/11 12:35:22;;;;;;;5.17;3.67;;;;;;;;;;4706679;30;20199;-88
2022/01/11 12:38:29;;;;;;;4.27;3.23;;;;;;;;;;4716281;30;20211;-90
2022/01/11 12:41:37;;;;;;;6.50;4.47;;;;;;;;;;4715744;30;20196;-88
2022/01/11 12:47:51;;;;;;;4.83;3.97;;;;;;;;;;4715413;30;20609;-91
2022/01/11 12:51:01;;;;;;;8.97;5.17;;;;;;;;;;4715800;30;20935;-91
2022/01/11 12:54:27;;;;;;;13.00;6.53;;;;;;;;;;4725668;30;20219;-91
2022/01/11 12:57:33;;;;;;;8.63;4.70;;;;;;;;;;4705078;30;21110;-88
2022/01/11 13:00:37;;;;;;;8.20;4.93;;;;;;;;;;4765207;24;20696;-91
2022/01/11 13:03:56;;;;;;;5.60;3.90;;;;;;;;;;4765647;30;20202;-90
2022/01/11 13:07:12;;;;;;;7.17;4.60;;;;;;;;;;4766101;30;20210;-91
2022/01/11 13:10:27;;;;;;;11.13;5.57;;;;;;;;;;4760579;30;20237;-91
2022/01/11 13:13:41;;;;;;;6.23;4.53;;;;;;;;;;4748216;30;20610;-89
2022/01/11 13:16:49;;;;;;;6.10;4.73;;;;;;;;;;4756629;30;20612;-88
2022/01/11 13:20:06;;;;;;;7.60;5.00;;;;;;;;;;4750578;30;20643;-88
2022/01/11 13:23:16;;;;;;;9.20;5.10;;;;;;;;;;4750749;30;20906;-88
2022/01/11 13:26:20;;;;;;;7.33;5.00;;;;;;;;;;4750326;30;20573;-88
2022/01/11 13:29:24;;;;;;;6.77;4.80;;;;;;;;;;4760524;30;20644;-89
2022/01/11 13:32:29;;;;;;;9.80;5.00;;;;;;;;;;4737544;30;20669;-91
2022/01/11 13:35:34;;;;;;;7.27;4.80;;;;;;;;;;4742432;30;20609;-91
2022/01/11 13:38:45;;;;;;;11.63;4.70;;;;;;;;;;4742927;30;20910;-89
2022/01/11 13:41:53;;;;;;;7.07;5.20;;;;;;;;;;4742836;30;20613;-91
2022/01/11 13:44:57;;;;;;;6.67;4.40;;;;;;;;;;4753023;30;20631;-91
2022/01/11 13:48:23;;;;;;;6.30;4.00;;;;;;;;;;4750098;30;20557;-89
2022/01/11 13:51:31;;;;;;;5.67;4.17;;;;;;;;;;4760181;30;20609;-89
2022/01/11 13:54:40;;;;;;;5.80;4.37;;;;;;;;;;4750277;30;20557;-90
2022/01/11 13:57:44;;;;;;;5.33;4.20;;;;;;;;;;4750090;30;20553;-89
2022/01/11 14:00:48;;;;;;;5.60;3.67;;;;;;;;;;4759637;30;21019;-89
2022/01/11 14:04:16;;;;;;;5.17;3.80;;;;;;;;;;4750039;30;20552;-89
2022/01/11 14:07:27;;;;;;;4.43;3.40;;;;;;;;;;4751014;30;20918;-91
2022/01/11 14:10:36;;;;;;;4.43;3.37;;;;;;;;;;4764193;30;20643;-92
2022/01/11 14:13:41;;;;;;;6.13;3.73;;;;;;;;;;4750693;30;20624;-91
2022/01/11 14:16:46;;;;;;;4.97;3.57;;;;;;;;;;4761781;30;20588;-91
2022/01/11 14:20:00;;;;;;;4.93;3.37;;;;;;;;;;4763659;30;21203;-91
2022/01/11 14:23:14;;;;;;;5.07;3.90;;;;;;;;;;4773628;30;20552;-89
2022/01/11 14:26:31;;;;;;;5.00;3.57;;;;;;;;;;4753063;30;21187;-91
2022/01/11 14:29:35;;;;;;;4.87;3.50;;;;;;;;;;4717946;30;21190;-89
2022/01/11 14:32:51;;;;;;;5.13;3.83;;;;;;;;;;4728040;30;20610;-89
2022/01/11 14:36:17;;;;;;;5.20;3.50;;;;;;;;;;4728373;30;20558;-91
2022/01/11 14:39:22;;;;;;;7.33;3.90;;;;;;;;;;4737770;30;20641;-89
2022/01/11 14:42:30;;;;;;;4.73;3.60;;;;;;;;;;4727926;30;21094;-91
2022/01/11 14:45:43;;;;;;;4.57;3.70;;;;;;;;;;4727794;30;20567;-89
2022/01/11 14:48:48;;;;;;;5.03;3.33;;;;;;;;;;4727719;30;20609;-88
2022/01/11 14:51:59;;;;;;;4.67;3.27;;;;;;;;;;4718420;30;20610;-86
2022/01/11 14:55:04;;;;;;;4.30;3.40;;;;;;;;;;4717898;30;20563;-89
2022/01/11 14:58:09;;;;;;;5.63;4.13;;;;;;;;;;4727732;30;20558;-88
2022/01/11 15:01:18;;;;;;;8.07;5.80;;;;;;;;;;4728369;30;20653;-88
2022/01/11 15:04:28;;;;;;;5.03;3.80;;;;;;;;;;4737640;30;20567;-89
2022/01/11 15:07:37;;;;;;;4.57;3.57;;;;;;;;;;4739359;30;20617;-87
2022/01/11 15:10:42;;;;;;;5.27;3.50;;;;;;;;;;4747579;30;20637;-88
2022/01/11 15:13:50;;;;;;;5.80;3.63;;;;;;;;;;4750709;30;20620;-89
2022/01/11 15:16:57;;;;;;;5.37;3.97;;;;;;;;;;4764391;30;20572;-90
2022/01/11 15:20:01;;;;;;;10.30;8.13;;;;;;;;;;4764365;30;20628;-91
2022/01/11 15:23:05;;;;;;;6.00;3.90;;;;;;;;;;4738974;30;20632;-90
2022/01/11 15:26:09;;;;;;;5.07;4.20;;;;;;;;;;4747398;30;20609;-87
2022/01/11 15:29:18;;;;;;;5.07;3.80;;;;;;;;;;4737021;30;20644;-88
2022/01/11 15:32:23;;;;;;;7.17;4.00;;;;;;;;;;4736792;30;20661;-88
2022/01/11 15:35:27;;;;;;;4.80;3.77;;;;;;;;;;4744749;30;20561;-88
2022/01/11 15:38:31;;;;;;;5.43;4.40;;;;;;;;;;4734776;30;20554;-88
2022/01/11 15:41:35;;;;;;;6.83;4.10;;;;;;;;;;4734705;30;20557;-88
2022/01/11 15:44:39;;;;;;;4.33;3.50;;;;;;;;;;4734420;30;20558;-88
2022/01/11 15:47:43;;;;;;;7.90;5.20;;;;;;;;;;4734352;30;20558;-88
2022/01/11 15:50:48;;;;;;;8.20;5.47;;;;;;;;;;4734737;30;20632;-87
2022/01/11 15:53:52;;;;;;;7.13;4.80;;;;;;;;;;4734368;30;20545;-88
2022/01/11 15:56:56;;;;;;;17.03;10.33;;;;;;;;;;4754007;30;20570;-88
2022/01/11 16:00:00;;;;;;;8.67;5.53;;;;;;;;;;4743437;30;20676;-88
2022/01/11 16:03:05;;;;;;;7.43;4.93;;;;;;;;;;4754025;30;20553;-87
2022/01/11 16:06:10;;;;;;;6.53;4.53;;;;;;;;;;4744216;30;20554;-87
2022/01/11 16:09:16;;;;;;;5.57;4.37;;;;;;;;;;4733741;30;20630;-88
2022/01/11 16:12:20;;;;;;;8.03;4.87;;;;;;;;;;4744020;30;20609;-87
2022/01/11 16:15:25;;;;;;;6.83;4.67;;;;;;;;;;4743502;30;20562;-87
2022/01/11 16:18:29;;;;;;;7.90;5.13;;;;;;;;;;4733796;30;20557;-88
2022/01/11 16:21:34;;;;;;;7.90;5.00;;;;;;;;;;4753607;30;20616;-87
2022/01/11 16:24:38;;;;;;;8.10;5.27;;;;;;;;;;4753627;30;20613;-88
2022/01/11 16:27:47;;;;;;;11.90;7.70;;;;;;;;;;4733244;30;20545;-88
2022/01/11 16:30:54;;;;;;;9.37;6.50;;;;;;;;;;4742078;30;20637;-87
2022/01/11 16:33:58;;;;;;;18.07;12.13;;;;;;;;;;4733487;30;20550;-87
2022/01/11 16:37:02;;;;;;;9.90;7.13;;;;;;;;;;4753395;30;20899;-87
2022/01/11 16:40:20;;;;;;;10.97;5.17;;;;;;;;;;4753258;30;20636;-88
2022/01/11 16:43:27;;;;;;;17.07;10.97;;;;;;;;;;4743467;30;20550;-87
2022/01/11 16:46:32;;;;;;;29.90;17.47;;;;;;;;;;4743111;30;20554;-87
2022/01/11 16:49:36;;;;;;;12.03;8.57;;;;;;;;;;4743134;30;20636;-88
2022/01/11 16:52:40;;;;;;;10.77;8.00;;;;;;;;;;4743081;30;21164;-89
2022/01/11 16:55:45;;;;;;;14.17;10.17;;;;;;;;;;4742930;30;20553;-88
2022/01/11 16:58:49;;;;;;;12.33;8.73;;;;;;;;;;4742894;30;20608;-88
2022/01/11 17:01:55;;;;;;;21.10;11.90;;;;;;;;;;4733017;30;20561;-87
2022/01/11 17:04:59;;;;;;;10.67;7.13;;;;;;;;;;4743603;30;20554;-90
2022/01/11 17:08:04;;;;;;;53.23;30.03;;;;;;;;;;4747526;30;20608;-89
2022/01/11 17:11:08;;;;;;;10.00;7.50;;;;;;;;;;4745044;30;20667;-90
2022/01/11 17:14:13;;;;;;;15.10;8.70;;;;;;;;;;4760752;30;21187;-91
2022/01/11 17:17:17;;;;;;;18.13;11.53;;;;;;;;;;4750386;30;20557;-91
2022/01/11 17:20:22;;;;;;;9.67;7.33;;;;;;;;;;4715069;30;20638;-89
2022/01/11 17:23:26;;;;;;;9.03;7.13;;;;;;;;;;4725152;30;20946;-90
2022/01/11 17:26:32;;;;;;;9.47;6.00;;;;;;;;;;4725072;30;20574;-90
2022/01/11 17:29:36;;;;;;;9.50;6.30;;;;;;;;;;4715341;30;20641;-90
2022/01/11 17:32:43;;;;;;;9.87;6.30;;;;;;;;;;4760132;30;20667;-89
2022/01/11 17:35:47;;;;;;;26.57;18.57;;;;;;;;;;4724770;30;20614;-89
2022/01/11 17:38:51;;;;;;;23.43;14.77;;;;;;;;;;4725129;30;20558;-88
2022/01/11 17:41:56;;;;;;;36.90;20.10;;;;;;;;;;4714964;30;20618;-88
2022/01/11 17:45:01;;;;;;;29.40;16.87;;;;;;;;;;4715350;30;20617;-88
2022/01/11 17:48:06;;;;;;;34.10;19.37;;;;;;;;;;4714916;30;20551;-88
2022/01/11 17:51:10;;;;;;;25.97;15.10;;;;;;;;;;4715016;30;20641;-88
2022/01/11 17:54:15;;;;;;;21.37;13.47;;;;;;;;;;4715065;30;20637;-87
2022/01/11 17:57:19;;;;;;;14.40;9.67;;;;;;;;;;4715278;30;20554;-88
2022/01/11 18:00:25;;;;;;;12.93;8.07;;;;;;;;;;4714805;30;20641;-88
2022/01/11 18:03:29;;;;;;;11.17;7.33;;;;;;;;;;4714731;30;20622;-88
2022/01/11 18:06:33;;;;;;;12.23;7.30;;;;;;;;;;4715646;30;20558;-87
2022/01/11 18:09:39;;;;;;;19.50;10.83;;;;;;;;;;4715065;30;20642;-87
2022/01/11 18:12:44;;;;;;;10.33;7.97;;;;;;;;;;4714630;30;20614;-87
2022/01/11 18:15:50;;;;;;;12.67;8.00;;;;;;;;;;4724722;30;21087;-87
2022/01/11 18:18:57;;;;;;;17.07;10.20;;;;;;;;;;4714749;30;20583;-88
2022/01/11 19:02:25;;;;;;;10.20;6.90;;;;;;;;;;4763861;24;20726;-88
2022/01/11 19:05:30;;;;;;;10.13;6.93;;;;;;;;;;4752851;30;20575;-90
2022/01/11 19:08:34;;;;;;;10.93;6.90;;;;;;;;;;4752425;30;20576;-89
2022/01/11 19:11:39;;;;;;;8.43;6.50;;;;;;;;;;4750208;30;20661;-89
2022/01/11 19:14:45;;;;;;;8.73;6.37;;;;;;;;;;4744817;30;21077;-89
2022/01/11 19:17:50;;;;;;;10.63;6.97;;;;;;;;;;4744797;30;20561;-89
2022/01/11 19:20:54;;;;;;;13.33;7.57;;;;;;;;;;4734625;30;20553;-89
2022/01/11 19:23:58;;;;;;;9.83;6.83;;;;;;;;;;4744607;30;20550;-89